createdAt,value
2019-02-06T00:03:01.664Z,-0.50
2019-02-06T00:08:05.286Z,-0.50
2019-02-06T00:13:09.243Z,-0.50
2019-02-06T00:18:12.905Z,-0.40
2019-02-06T00:23:16.936Z,-0.40
2019-02-06T00:28:20.571Z,-0.40
2019-02-06T00:33:25.095Z,-0.40
2019-02-06T00:38:29.718Z,-0.40
2019-02-06T00:43:33.447Z,-0.40
2019-02-06T00:48:37.404Z,-0.40
2019-02-06T00:53:41.001Z,-0.30
2019-02-06T00:58:44.668Z,-0.40
2019-02-06T01:03:48.378Z,-0.30
2019-02-06T01:08:52.058Z,-0.30
2019-02-06T01:13:55.791Z,-0.30
2019-02-06T01:18:59.700Z,-0.30
2019-02-06T01:24:04.065Z,-0.30
2019-02-06T01:29:07.962Z,-0.30
2019-02-06T01:34:11.623Z,-0.30
2019-02-06T01:39:15.308Z,-0.30
2019-02-06T01:44:19.131Z,-0.20
2019-02-06T01:49:23.064Z,-0.30
2019-02-06T01:54:26.530Z,-0.30
2019-02-06T01:59:30.266Z,-0.30
2019-02-06T02:04:34.004Z,-0.30
2019-02-06T02:09:37.876Z,-0.30
2019-02-06T02:14:41.850Z,-0.30
2019-02-06T02:19:45.683Z,-0.20
2019-02-06T02:24:49.740Z,-0.20
2019-02-06T02:29:53.450Z,-0.20
2019-02-06T02:34:57.036Z,-0.30
2019-02-06T02:40:00.921Z,-0.30
2019-02-06T02:45:06.908Z,-0.20
2019-02-06T02:50:11.336Z,-0.30
2019-02-06T02:55:15.123Z,-0.20
2019-02-06T03:00:21.486Z,-0.20
2019-02-06T03:05:26.816Z,-0.20
2019-02-06T03:10:30.906Z,-0.20
2019-02-06T03:15:35.028Z,-0.20
2019-02-06T03:20:38.564Z,-0.20
2019-02-06T03:25:42.169Z,-0.20
2019-02-06T03:30:45.831Z,-0.20
2019-02-06T03:35:49.411Z,-0.10
2019-02-06T03:40:53.023Z,-0.10
2019-02-06T03:45:56.719Z,-0.10
2019-02-06T03:51:00.381Z,-0.10
2019-02-06T03:56:04.216Z,-0.10
2019-02-06T04:01:11.258Z,-0.10
2019-02-06T04:06:13.363Z,-0.10
2019-02-06T04:11:16.986Z,-0.10
2019-02-06T04:16:22.445Z,-0.10
2019-02-06T04:21:26.230Z,-0.10
2019-02-06T04:26:30.105Z,-0.10
2019-02-06T04:31:33.966Z,-0.10
2019-02-06T04:36:37.549Z,-0.10
2019-02-06T04:41:41.957Z,-0.10
2019-02-06T04:46:46.991Z,0.00
2019-02-06T04:51:50.488Z,-0.10
2019-02-06T04:56:54.302Z,-0.10
2019-02-06T05:01:57.918Z,-0.10
2019-02-06T05:07:01.432Z,-0.10
2019-02-06T05:12:05.163Z,-0.10
2019-02-06T05:17:08.602Z,-0.10
2019-02-06T05:22:12.167Z,-0.10
2019-02-06T05:27:15.779Z,-0.10
2019-02-06T05:32:19.397Z,-0.10
2019-02-06T05:37:32.205Z,-0.10
2019-02-06T05:42:29.273Z,-0.10
2019-02-06T05:47:33.466Z,-0.10
2019-02-06T05:52:37.091Z,-0.10
2019-02-06T05:57:40.701Z,-0.10
2019-02-06T06:02:44.418Z,-0.10
2019-02-06T06:07:48.545Z,-0.10
2019-02-06T06:12:52.511Z,-0.10
2019-02-06T06:17:56.513Z,-0.10
2019-02-06T06:23:00.328Z,-0.10
2019-02-06T06:28:04.595Z,-0.10
2019-02-06T06:33:08.196Z,-0.10
2019-02-06T06:38:12.321Z,0.00
2019-02-06T06:43:16.547Z,0.00
2019-02-06T06:48:20.448Z,0.10
2019-02-06T06:53:24.509Z,0.20
2019-02-06T06:58:28.042Z,0.40
2019-02-06T07:03:31.596Z,0.40
2019-02-06T07:08:35.270Z,0.50
2019-02-06T07:13:38.888Z,0.70
2019-02-06T07:18:42.915Z,0.70
2019-02-06T07:23:46.803Z,0.70
2019-02-06T07:28:50.436Z,0.70
2019-02-06T07:33:54.076Z,0.90
2019-02-06T07:38:57.800Z,1.00
2019-02-06T07:44:01.953Z,1.20
2019-02-06T07:49:05.693Z,1.20
2019-02-06T07:54:09.255Z,1.40
2019-02-06T07:59:12.938Z,1.80
2019-02-06T08:04:16.790Z,1.90
2019-02-06T08:09:20.818Z,2.10
2019-02-06T08:14:24.449Z,2.30
2019-02-06T08:19:28.155Z,2.50
2019-02-06T08:24:31.662Z,2.50
2019-02-06T08:29:35.221Z,2.70
2019-02-06T08:34:39.633Z,2.90
2019-02-06T08:39:43.448Z,2.90
2019-02-06T08:44:47.157Z,3.20
2019-02-06T08:49:51.337Z,3.50
2019-02-06T08:54:55.035Z,3.40
2019-02-06T08:59:59.185Z,3.70
2019-02-06T09:05:02.883Z,3.30
2019-02-06T09:10:09.720Z,3.00
2019-02-06T09:15:13.644Z,3.00
2019-02-06T09:20:19.724Z,3.50
2019-02-06T09:25:25.656Z,4.60
2019-02-06T09:30:34.996Z,5.20
2019-02-06T09:35:39.053Z,6.80
2019-02-06T09:40:42.702Z,7.60
2019-02-06T09:45:46.416Z,7.00
2019-02-06T09:50:50.441Z,6.00
2019-02-06T09:55:54.224Z,5.40
2019-02-06T10:00:58.550Z,5.00
2019-02-06T10:06:02.428Z,5.00
2019-02-06T10:11:05.905Z,5.80
2019-02-06T10:16:09.585Z,6.40
2019-02-06T10:21:13.196Z,6.10
2019-02-06T10:26:17.211Z,6.20
2019-02-06T10:31:20.826Z,6.90
2019-02-06T10:36:24.441Z,8.30
2019-02-06T10:41:28.134Z,8.70
2019-02-06T10:46:31.886Z,8.70
2019-02-06T10:51:35.823Z,9.60
2019-02-06T10:56:39.399Z,8.80
2019-02-06T11:01:43.083Z,8.30
2019-02-06T11:06:46.711Z,9.90
2019-02-06T11:11:50.195Z,10.40
2019-02-06T11:16:53.821Z,10.80
2019-02-06T11:21:58.926Z,13.40
2019-02-06T11:27:02.466Z,12.30
2019-02-06T11:32:06.073Z,9.80
2019-02-06T11:37:09.693Z,9.10
2019-02-06T11:42:13.413Z,8.60
2019-02-06T11:47:17.339Z,8.20
2019-02-06T11:52:20.948Z,7.90
2019-02-06T11:57:24.562Z,6.90
2019-02-06T12:02:36.932Z,7.80
2019-02-06T12:07:33.346Z,7.40
2019-02-06T12:12:37.001Z,7.80
2019-02-06T12:17:40.621Z,8.00
2019-02-06T12:22:45.371Z,8.20
2019-02-06T12:27:50.516Z,8.50
2019-02-06T12:32:54.023Z,8.30
2019-02-06T12:37:57.728Z,8.00
2019-02-06T12:43:01.455Z,7.70
2019-02-06T12:48:05.321Z,8.00
2019-02-06T12:53:09.017Z,7.00
2019-02-06T12:58:12.658Z,6.70
2019-02-06T13:03:16.271Z,6.90
2019-02-06T13:08:19.858Z,6.90
2019-02-06T13:13:23.479Z,6.70
2019-02-06T13:18:27.201Z,6.60
2019-02-06T13:23:35.864Z,5.90
2019-02-06T13:28:40.206Z,5.50
2019-02-06T13:33:45.331Z,5.10
2019-02-06T13:38:49.279Z,4.60
2019-02-06T13:43:52.997Z,4.70
2019-02-06T13:48:56.683Z,4.80
2019-02-06T13:54:00.323Z,4.60
2019-02-06T13:59:03.936Z,4.60
2019-02-06T14:04:09.257Z,4.60
2019-02-06T14:09:22.273Z,3.90
2019-02-06T14:14:19.741Z,3.40
2019-02-06T14:19:23.318Z,3.00
2019-02-06T14:24:30.128Z,3.00
2019-02-06T14:29:59.785Z,3.10
2019-02-06T14:35:32.278Z,3.30
2019-02-06T14:40:47.366Z,2.80
2019-02-06T14:46:23.255Z,2.50
2019-02-06T14:51:45.782Z,2.40
2019-02-06T14:56:58.359Z,3.30
2019-02-06T15:02:08.132Z,3.60
2019-02-06T15:07:33.939Z,3.10
2019-02-06T15:12:59.861Z,2.30
2019-02-06T15:18:31.162Z,2.00
2019-02-06T15:23:46.927Z,1.70
2019-02-06T15:28:53.824Z,1.60
2019-02-06T15:34:15.682Z,1.00
2019-02-06T15:39:38.060Z,0.30
2019-02-06T15:45:09.219Z,-0.40
2019-02-06T15:50:26.682Z,-0.80
2019-02-06T15:55:45.941Z,-0.90
2019-02-06T16:01:12.408Z,-0.80
2019-02-06T16:06:40.916Z,-0.80
2019-02-06T16:12:02.609Z,-0.90
2019-02-06T16:17:15.655Z,-0.90
2019-02-06T16:22:47.486Z,-1.10
2019-02-06T16:28:14.202Z,-1.50
2019-02-06T16:33:24.019Z,-1.80
2019-02-06T16:38:57.826Z,-2.20
2019-02-06T16:44:19.469Z,-2.40
2019-02-06T16:49:38.930Z,-2.60
2019-02-06T16:55:03.812Z,-2.80
2019-02-06T17:00:13.378Z,-3.00
2019-02-06T17:05:37.695Z,-3.10
2019-02-06T17:10:45.358Z,-3.30
2019-02-06T17:16:11.929Z,-3.40
2019-02-06T17:21:37.051Z,-3.30
2019-02-06T17:26:50.065Z,-3.50
2019-02-06T17:32:31.170Z,-3.50
2019-02-06T17:37:54.736Z,-3.60
2019-02-06T17:43:26.314Z,-3.60
2019-02-06T17:48:52.996Z,-3.80
2019-02-06T17:54:05.830Z,-3.90
2019-02-06T17:59:10.353Z,-4.00
2019-02-06T18:04:14.180Z,-4.00
2019-02-06T18:09:17.760Z,-3.90
2019-02-06T18:14:21.706Z,-4.00
2019-02-06T18:19:25.946Z,-4.00
2019-02-06T18:24:31.952Z,-4.00
2019-02-06T18:29:35.640Z,-4.10
2019-02-06T18:34:39.886Z,-4.30
2019-02-06T18:39:43.628Z,-4.40
2019-02-06T18:44:47.336Z,-4.40
2019-02-06T18:49:51.758Z,-4.10
2019-02-06T18:54:55.655Z,-4.10
2019-02-06T19:00:00.889Z,-3.90
2019-02-06T19:05:07.953Z,-3.70
2019-02-06T19:10:14.481Z,-4.20
2019-02-06T19:15:18.748Z,-4.30
2019-02-06T19:20:22.822Z,-4.50
2019-02-06T19:25:26.846Z,-4.30
2019-02-06T19:30:36.222Z,-4.20
2019-02-06T19:35:40.023Z,-4.20
2019-02-06T19:40:43.716Z,-4.30
2019-02-06T19:45:47.570Z,-4.20
2019-02-06T19:50:51.711Z,-4.60
2019-02-06T19:55:56.191Z,-4.10
2019-02-06T20:01:00.128Z,-4.10
2019-02-06T20:06:05.775Z,-4.50
2019-02-06T20:11:09.551Z,-4.60
2019-02-06T20:16:13.396Z,-4.70
2019-02-06T20:21:17.078Z,-4.70
2019-02-06T20:26:20.799Z,-4.80
2019-02-06T20:31:24.457Z,-5.00
2019-02-06T20:36:28.105Z,-5.00
2019-02-06T20:41:32.763Z,-4.90
2019-02-06T20:46:37.148Z,-4.70
2019-02-06T20:51:40.711Z,-4.80
2019-02-06T20:56:44.789Z,-4.70
2019-02-06T21:01:48.621Z,-4.40
2019-02-06T21:06:54.946Z,-4.30
2019-02-06T21:12:00.999Z,-4.20
2019-02-06T21:17:05.214Z,-4.20
2019-02-06T21:22:10.048Z,-3.90
2019-02-06T21:27:14.918Z,-4.00
2019-02-06T21:32:18.854Z,-4.10
2019-02-06T21:37:22.363Z,-4.40
2019-02-06T21:42:26.848Z,-4.80
2019-02-06T21:47:30.521Z,-4.80
2019-02-06T21:52:34.329Z,-4.60
2019-02-06T21:57:38.546Z,-4.50
2019-02-06T22:02:42.154Z,-4.00
2019-02-06T22:07:46.414Z,-3.90
2019-02-06T22:12:49.854Z,-3.60
2019-02-06T22:17:53.766Z,-3.60
2019-02-06T22:22:57.830Z,-3.40
2019-02-06T22:28:01.803Z,-3.30
2019-02-06T22:33:05.943Z,-3.40
2019-02-06T22:38:12.648Z,-3.30
2019-02-06T22:43:17.099Z,-3.30
2019-02-06T22:48:21.081Z,-3.30
2019-02-06T22:53:25.957Z,-3.30
2019-02-06T22:58:36.442Z,-3.20
2019-02-06T23:03:40.359Z,-3.20
2019-02-06T23:08:44.261Z,-3.00
2019-02-06T23:13:48.627Z,-3.10
2019-02-06T23:18:52.323Z,-3.00
2019-02-06T23:23:56.236Z,-2.90
2019-02-06T23:29:00.259Z,-2.90
2019-02-06T23:34:04.006Z,-2.70
2019-02-06T23:39:12.517Z,-2.70
2019-02-06T23:44:16.034Z,-2.60
2019-02-06T23:49:19.745Z,-2.70
2019-02-06T23:54:23.473Z,-2.60
2019-02-06T23:59:27.603Z,-2.70
